Time;durP1;ratioP1;P1;durP2;ratioP2;P2;SDS_P1;SDS_P2;PMS_P1;PMS_P2;Temp;Humidity;BMP_temperature;BMP_pressure;BME280_temperature;BME280_humidity;BME280_pressure;Samples;Min_cycle;Max_cycle;Signal;HPM_P1;HPM_P2
2023/08/05 00:00:45;;;;;;;2.15;2.05;;;;;;;14.45;100.00;95416.94;5001675;28;20014;-67
2023/08/05 00:03:10;;;;;;;2.53;2.40;;;;;;;14.45;100.00;95427.53;5013118;28;20030;-66
2023/08/05 00:05:39;;;;;;;2.70;2.50;;;;;;;14.44;100.00;95426.72;5014231;28;20028;-67
2023/08/05 00:08:07;;;;;;;2.53;2.33;;;;;;;14.45;100.00;95431.03;5011751;28;20030;-67
2023/08/05 00:10:32;;;;;;;7.60;2.72;;;;;;;14.43;100.00;95425.06;5014338;28;20394;-67
2023/08/05 00:12:58;;;;;;;2.67;2.47;;;;;;;14.42;100.00;95430.53;5014213;28;20022;-68
2023/08/05 00:15:23;;;;;;;2.50;2.35;;;;;;;14.40;100.00;95430.72;5017746;28;20106;-67
2023/08/05 00:17:49;;;;;;;2.20;2.10;;;;;;;14.38;100.00;95426.59;5014086;28;20021;-67
2023/08/05 00:20:14;;;;;;;2.78;1.90;;;;;;;14.35;100.00;95427.75;5014255;28;20547;-67
2023/08/05 00:22:40;;;;;;;2.08;1.98;;;;;;;14.42;100.00;95441.13;5013677;28;20493;-69
2023/08/05 00:25:05;;;;;;;2.42;2.30;;;;;;;14.47;100.00;95482.00;5014059;28;20048;-66
2023/08/05 00:27:31;;;;;;;2.38;2.17;;;;;;;14.49;100.00;95503.03;4992517;28;20346;-69
2023/08/05 00:29:56;;;;;;;3.05;2.22;;;;;;;14.45;100.00;95507.00;5014120;28;20072;-69
2023/08/05 00:32:22;;;;;;;2.60;2.25;;;;;;;14.45;100.00;95518.44;5017084;28;20029;-69
2023/08/05 00:34:47;;;;;;;2.60;2.40;;;;;;;14.37;100.00;95515.81;5017912;28;20025;-69
2023/08/05 00:37:13;;;;;;;2.28;2.17;;;;;;;14.40;100.00;95526.06;5049512;28;20053;-68
2023/08/05 00:39:38;;;;;;;2.35;2.20;;;;;;;14.43;100.00;95535.47;5018040;28;20025;-68
2023/08/05 00:42:04;;;;;;;2.38;2.20;;;;;;;14.42;100.00;95539.13;5017977;28;20105;-69
2023/08/05 00:44:29;;;;;;;3.33;2.30;;;;;;;14.46;100.00;95537.78;5016474;28;20497;-68
2023/08/05 00:46:56;;;;;;;2.40;2.20;;;;;;;14.45;100.00;95552.84;5017667;28;20029;-69
2023/08/05 00:49:22;;;;;;;2.70;2.50;;;;;;;14.43;100.00;95572.53;5019208;28;20026;-69
2023/08/05 00:51:47;;;;;;;2.65;2.45;;;;;;;14.39;100.00;95563.28;5017891;28;20386;-69
2023/08/05 00:54:13;;;;;;;3.67;2.55;;;;;;;14.36;100.00;95537.97;5017568;28;20028;-69
2023/08/05 00:56:38;;;;;;;2.50;2.40;;;;;;;14.33;100.00;95523.25;5016371;28;20388;-69
2023/08/05 00:59:04;;;;;;;2.10;2.00;;;;;;;14.29;100.00;95484.03;5015523;28;20033;-69
2023/08/05 01:01:30;;;;;;;3.83;2.15;;;;;;;14.32;100.00;95481.03;5016167;28;20029;-68
2023/08/05 01:03:55;;;;;;;4.05;3.13;;;;;;;14.31;100.00;95474.09;5013975;28;20057;-66
2023/08/05 01:06:23;;;;;;;3.17;2.25;;;;;;;14.27;100.00;95465.69;5017033;28;20073;-69
2023/08/05 01:08:49;;;;;;;2.78;2.20;;;;;;;14.15;100.00;95456.44;5017689;28;20636;-69
2023/08/05 01:11:16;;;;;;;2.50;2.30;;;;;;;14.06;100.00;95450.34;5018120;28;20033;-69
2023/08/05 01:13:42;;;;;;;1.90;1.80;;;;;;;14.02;100.00;95443.75;5017034;28;20459;-68
2023/08/05 01:16:08;;;;;;;2.70;2.50;;;;;;;13.98;100.00;95437.16;5017425;28;20076;-69
2023/08/05 01:18:36;;;;;;;2.45;2.25;;;;;;;13.99;100.00;95436.97;5015633;28;20021;-66
2023/08/05 01:21:03;;;;;;;2.30;2.20;;;;;;;13.97;100.00;95430.22;5017108;28;20022;-69
2023/08/05 01:23:33;;;;;;;2.65;2.45;;;;;;;13.98;100.00;95422.06;5016806;28;20128;-69
2023/08/05 01:26:00;;;;;;;2.20;2.10;;;;;;;13.97;100.00;95432.84;5018309;28;20025;-69
2023/08/05 01:28:26;;;;;;;2.88;2.67;;;;;;;13.95;100.00;95427.72;5010461;28;20101;-68
2023/08/05 01:30:52;;;;;;;2.50;2.30;;;;;;;13.94;100.00;95430.56;5010544;28;20034;-69
2023/08/05 01:33:18;;;;;;;2.45;2.17;;;;;;;13.91;100.00;95426.41;5016473;28;20028;-69
2023/08/05 01:35:49;;;;;;;2.65;2.45;;;;;;;13.86;100.00;95437.50;5016732;28;20022;-68
2023/08/05 01:38:15;;;;;;;2.50;2.30;;;;;;;13.91;100.00;95434.34;5015803;28;20026;-69
2023/08/05 01:40:40;;;;;;;2.15;2.05;;;;;;;13.95;100.00;95427.72;5016369;28;20504;-69
2023/08/05 01:43:07;;;;;;;2.10;2.00;;;;;;;13.96;100.00;95421.44;5014639;28;20495;-68
2023/08/05 01:45:32;;;;;;;2.30;2.20;;;;;;;13.93;100.00;95428.91;5015793;28;20025;-68
2023/08/05 01:47:57;;;;;;;2.10;2.00;;;;;;;13.88;100.00;95437.34;5014078;28;20474;-68
2023/08/05 01:50:23;;;;;;;2.50;2.30;;;;;;;13.87;100.00;95459.50;5014228;28;20674;-68
2023/08/05 01:52:49;;;;;;;2.92;2.28;;;;;;;13.85;100.00;95483.47;5013362;28;20034;-68
2023/08/05 01:55:14;;;;;;;4.53;2.13;;;;;;;13.88;100.00;95551.13;5015367;28;20048;-68
2023/08/05 01:57:40;;;;;;;2.50;2.30;;;;;;;13.88;100.00;95562.50;5014319;28;20021;-68
2023/08/05 02:00:06;;;;;;;2.50;2.30;;;;;;;13.84;100.00;95582.38;5014886;28;20033;-68
2023/08/05 02:02:32;;;;;;;2.28;2.17;;;;;;;13.85;100.00;95599.91;5015728;28;20049;-69
2023/08/05 02:04:57;;;;;;;2.88;2.08;;;;;;;13.86;100.00;95604.19;5014728;28;20434;-68
2023/08/05 02:07:22;;;;;;;2.42;2.30;;;;;;;13.91;100.00;95616.94;5013374;28;20504;-69
2023/08/05 02:09:48;;;;;;;2.60;2.50;;;;;;;13.92;100.00;95626.53;5002895;28;20022;-68
2023/08/05 02:12:13;;;;;;;2.20;2.10;;;;;;;13.92;100.00;95634.47;5014109;28;20050;-68
2023/08/05 02:14:39;;;;;;;2.40;2.22;;;;;;;13.89;100.00;95642.75;5015010;28;20048;-68
2023/08/05 02:17:04;;;;;;;1.92;1.83;;;;;;;13.92;100.00;95629.19;5016058;28;20058;-68
2023/08/05 02:19:30;;;;;;;2.35;2.25;;;;;;;13.89;100.00;95629.50;5016277;28;20036;-68
2023/08/05 02:21:55;;;;;;;2.58;2.42;;;;;;;13.86;100.00;95643.88;5016348;28;20026;-68
2023/08/05 02:24:21;;;;;;;2.53;2.20;;;;;;;13.81;100.00;95648.84;5015774;28;20124;-68
2023/08/05 02:26:46;;;;;;;2.67;2.58;;;;;;;13.86;100.00;95656.31;4998379;28;20408;-68
2023/08/05 02:29:11;;;;;;;5.97;2.60;;;;;;;13.90;100.00;95660.28;4997484;28;20042;-68
2023/08/05 02:31:37;;;;;;;2.80;2.58;;;;;;;13.91;100.00;95654.00;5015935;28;20498;-68
2023/08/05 02:34:02;;;;;;;2.50;2.30;;;;;;;13.92;100.00;95660.09;5027664;28;20033;-68
2023/08/05 02:36:27;;;;;;;2.65;2.45;;;;;;;13.90;100.00;95668.22;5015992;28;20505;-68
2023/08/05 02:38:53;;;;;;;2.30;2.10;;;;;;;13.90;100.00;95665.56;5015566;28;20044;-69
2023/08/05 02:41:18;;;;;;;2.30;2.20;;;;;;;13.92;100.00;95660.09;5015903;28;20498;-68
2023/08/05 02:43:44;;;;;;;2.40;2.20;;;;;;;13.87;100.00;95642.09;5015790;28;20152;-68
2023/08/05 02:46:09;;;;;;;2.40;2.15;;;;;;;13.88;100.00;95647.19;5030233;28;20037;-68
2023/08/05 02:48:34;;;;;;;4.90;2.53;;;;;;;13.89;100.00;95653.34;5015085;28;20061;-68
2023/08/05 02:51:00;;;;;;;2.38;2.20;;;;;;;13.87;100.00;95653.47;5015448;28;20038;-68
2023/08/05 02:53:25;;;;;;;2.42;2.20;;;;;;;13.92;100.00;95639.75;5025790;28;20026;-68
2023/08/05 02:55:51;;;;;;;2.13;2.03;;;;;;;13.94;100.00;95632.50;5007109;28;20471;-68
2023/08/05 02:58:17;;;;;;;2.55;2.35;;;;;;;13.91;100.00;95622.25;5015164;28;20144;-68
2023/08/05 03:00:43;;;;;;;2.40;2.30;;;;;;;13.88;100.00;95633.16;5015430;28;20022;-68
2023/08/05 03:03:10;;;;;;;2.55;2.35;;;;;;;13.93;100.00;95640.59;5014848;28;20026;-69
2023/08/05 03:05:36;;;;;;;2.17;2.08;;;;;;;13.92;100.00;95652.16;5015118;28;20430;-68
2023/08/05 03:08:01;;;;;;;2.38;2.28;;;;;;;13.89;100.00;95667.38;5013784;28;20026;-68
2023/08/05 03:10:27;;;;;;;2.45;2.35;;;;;;;13.83;100.00;95683.91;5015304;28;20434;-68
2023/08/05 03:12:52;;;;;;;2.38;2.22;;;;;;;13.84;100.00;95690.03;5015018;28;20791;-68
2023/08/05 03:15:18;;;;;;;2.47;2.38;;;;;;;13.83;100.00;95707.72;5014046;28;20153;-69
2023/08/05 03:17:43;;;;;;;2.38;2.28;;;;;;;13.79;100.00;95716.13;5014989;28;20026;-68
2023/08/05 03:20:33;;;;;;;2.10;2.00;;;;;;;13.79;100.00;95719.63;5013765;28;20060;-68
2023/08/05 03:22:58;;;;;;;2.53;2.33;;;;;;;13.82;100.00;95723.78;5013409;28;20034;-68
2023/08/05 03:25:26;;;;;;;2.10;2.00;;;;;;;13.82;100.00;95719.31;5014325;28;20033;-68
2023/08/05 03:27:52;;;;;;;2.40;2.30;;;;;;;13.85;100.00;95723.47;5013346;28;20041;-69
2023/08/05 03:30:18;;;;;;;5.45;2.28;;;;;;;13.85;100.00;95720.81;5012172;28;20406;-68
2023/08/05 03:32:47;;;;;;;3.15;2.45;;;;;;;13.82;100.00;95721.94;5047956;28;20053;-68
2023/08/05 03:35:12;;;;;;;2.55;2.35;;;;;;;13.80;100.00;95726.56;5014588;28;20101;-68
2023/08/05 03:37:38;;;;;;;5.05;2.50;;;;;;;13.77;100.00;95726.06;5001904;28;20112;-69
2023/08/05 03:40:04;;;;;;;2.78;2.58;;;;;;;13.73;100.00;95715.81;5014538;28;20041;-68
2023/08/05 03:42:30;;;;;;;3.15;2.83;;;;;;;13.72;100.00;95708.03;5014586;28;20615;-68
2023/08/05 03:44:56;;;;;;;3.10;2.80;;;;;;;13.74;100.00;95706.88;5014122;28;20140;-68
2023/08/05 03:47:21;;;;;;;2.83;2.63;;;;;;;13.69;100.00;95701.25;5029589;28;20026;-69
2023/08/05 03:49:47;;;;;;;2.88;2.47;;;;;;;13.69;100.00;95706.53;5015155;28;20061;-69
2023/08/05 03:52:12;;;;;;;2.38;2.28;;;;;;;13.71;100.00;95717.78;5014725;28;20119;-68
2023/08/05 03:54:37;;;;;;;2.97;2.20;;;;;;;13.69;100.00;95722.41;5014282;28;20485;-68
2023/08/05 03:57:08;;;;;;;3.83;2.40;;;;;;;13.75;100.00;95713.00;4996723;28;20017;-68
2023/08/05 03:59:33;;;;;;;2.40;2.20;;;;;;;13.74;100.00;95719.28;5003917;28;20034;-68
2023/08/05 04:01:59;;;;;;;2.30;2.20;;;;;;;13.67;100.00;95719.09;5014355;28;20076;-68
2023/08/05 04:04:24;;;;;;;2.47;2.28;;;;;;;13.68;100.00;95726.03;5014268;28;20026;-68
2023/08/05 04:06:50;;;;;;;3.10;2.70;;;;;;;13.69;100.00;95732.16;5014031;28;20527;-68
2023/08/05 04:09:16;;;;;;;2.83;2.63;;;;;;;13.70;100.00;95732.00;5014295;28;20038;-68
2023/08/05 04:11:41;;;;;;;2.85;2.10;;;;;;;13.75;100.00;95739.47;5014037;28;20040;-68
2023/08/05 04:14:07;;;;;;;6.13;3.17;;;;;;;13.78;100.00;95749.72;5012706;28;20029;-68
2023/08/05 04:16:34;;;;;;;2.60;2.40;;;;;;;13.82;100.00;95732.53;5013513;28;20026;-68
2023/08/05 04:19:00;;;;;;;6.05;3.08;;;;;;;13.80;100.00;95731.03;5014084;28;20049;-68
2023/08/05 04:21:30;;;;;;;3.55;2.60;;;;;;;13.81;100.00;95733.53;5013956;28;20038;-68
2023/08/05 04:23:55;;;;;;;3.63;2.42;;;;;;;13.79;100.00;95729.38;5014192;28;20030;-68
2023/08/05 04:26:21;;;;;;;2.55;2.45;;;;;;;13.78;100.00;95728.56;5018335;28;20072;-68
2023/08/05 04:28:47;;;;;;;2.55;2.35;;;;;;;13.80;100.00;95725.72;5019772;28;20514;-68
2023/08/05 04:31:13;;;;;;;2.22;2.13;;;;;;;13.81;100.00;95722.09;4993904;28;20038;-68
2023/08/05 04:33:39;;;;;;;3.30;2.22;;;;;;;13.80;100.00;95725.72;5047340;28;20570;-68
2023/08/05 04:36:04;;;;;;;2.30;2.20;;;;;;;13.75;100.00;95726.25;5013831;28;20534;-68
2023/08/05 04:38:30;;;;;;;2.50;2.30;;;;;;;13.70;100.00;95718.78;5013916;28;20026;-68
2023/08/05 04:40:55;;;;;;;2.28;2.00;;;;;;;13.73;100.00;95725.56;5013913;28;20022;-68
2023/08/05 04:43:21;;;;;;;2.70;2.50;;;;;;;13.71;100.00;95731.00;5013607;28;20686;-68
2023/08/05 04:45:50;;;;;;;2.40;2.20;;;;;;;13.69;100.00;95745.38;5013598;28;20061;-68
2023/08/05 04:48:16;;;;;;;4.13;2.53;;;;;;;13.70;100.00;95742.59;5013564;28;20030;-68
2023/08/05 04:50:41;;;;;;;2.65;2.42;;;;;;;13.73;100.00;95752.84;5015293;28;20147;-68
2023/08/05 04:53:07;;;;;;;2.63;2.42;;;;;;;13.72;100.00;95750.38;5013332;28;20029;-68
2023/08/05 04:55:32;;;;;;;2.45;2.25;;;;;;;13.74;100.00;95754.50;5012267;28;20026;-68
2023/08/05 04:57:58;;;;;;;2.30;2.20;;;;;;;13.73;100.00;95757.31;5013720;28;20041;-68
2023/08/05 05:00:25;;;;;;;4.68;2.33;;;;;;;13.75;100.00;95755.34;5011969;28;20033;-68
2023/08/05 05:02:51;;;;;;;2.45;2.20;;;;;;;13.78;100.00;95735.66;5012977;28;20084;-68
2023/08/05 05:05:17;;;;;;;2.30;2.20;;;;;;;13.82;100.00;95735.19;5013010;28;20030;-68
2023/08/05 05:07:42;;;;;;;2.92;2.58;;;;;;;13.80;100.00;95733.66;5013396;28;20613;-68
2023/08/05 05:10:07;;;;;;;2.80;2.60;;;;;;;13.77;100.00;95729.56;5013475;28;20727;-68
2023/08/05 05:12:33;;;;;;;3.13;2.92;;;;;;;13.69;100.00;95735.63;5012524;28;20483;-68
2023/08/05 05:14:58;;;;;;;2.70;2.50;;;;;;;13.58;100.00;95727.97;5013304;28;20029;-68
2023/08/05 05:17:24;;;;;;;2.17;2.08;;;;;;;13.50;100.00;95735.91;5004711;28;20046;-68
2023/08/05 05:19:49;;;;;;;2.75;2.55;;;;;;;13.44;100.00;95738.19;5014711;28;20506;-68
2023/08/05 05:22:17;;;;;;;2.60;2.40;;;;;;;13.44;100.00;95724.13;5017113;28;20525;-68
2023/08/05 05:24:42;;;;;;;2.55;2.45;;;;;;;13.44;100.00;95721.47;5016898;28;20026;-68
2023/08/05 05:27:09;;;;;;;2.42;2.33;;;;;;;13.47;100.00;95713.22;5019683;28;20038;-68
2023/08/05 05:29:35;;;;;;;2.65;2.47;;;;;;;13.50;100.00;95720.88;5016207;28;20042;-68
2023/08/05 05:32:00;;;;;;;2.65;2.42;;;;;;;13.55;100.00;95729.16;5017184;28;20708;-68
2023/08/05 05:34:25;;;;;;;2.63;2.40;;;;;;;13.58;100.00;95723.53;5016940;28;20052;-68
2023/08/05 05:36:51;;;;;;;2.90;2.42;;;;;;;13.64;100.00;95726.50;5015003;28;20018;-68
2023/08/05 05:39:17;;;;;;;4.57;2.10;;;;;;;13.63;100.00;95725.72;5016340;28;20025;-68
2023/08/05 05:41:43;;;;;;;2.63;2.28;;;;;;;13.64;100.00;95730.00;5015724;28;20056;-69
2023/08/05 05:44:08;;;;;;;2.28;2.17;;;;;;;13.66;100.00;95735.97;5048123;28;20045;-68
2023/08/05 05:46:33;;;;;;;2.67;2.40;;;;;;;13.67;100.00;95734.97;5016460;28;20026;-68
2023/08/05 05:48:59;;;;;;;3.65;2.88;;;;;;;13.66;100.00;95728.03;4999877;28;20088;-68
2023/08/05 05:51:25;;;;;;;2.67;2.42;;;;;;;13.75;100.00;95745.56;5014900;28;20026;-68
2023/08/05 05:53:55;;;;;;;2.40;2.30;;;;;;;13.82;100.00;95729.88;5016735;28;20039;-68
2023/08/05 05:56:21;;;;;;;2.90;2.25;;;;;;;13.89;100.00;95745.94;5016505;28;20029;-68
2023/08/05 05:58:46;;;;;;;2.78;2.58;;;;;;;13.94;100.00;95753.41;5016351;28;20030;-68
2023/08/05 06:01:13;;;;;;;5.03;2.30;;;;;;;13.96;100.00;95752.25;5016384;28;20024;-68
2023/08/05 06:03:39;;;;;;;2.50;2.40;;;;;;;14.04;100.00;95743.50;5015237;28;20017;-69
2023/08/05 06:06:04;;;;;;;3.08;2.50;;;;;;;14.14;100.00;95738.06;5016178;28;20084;-68
2023/08/05 06:08:30;;;;;;;2.40;2.20;;;;;;;14.23;100.00;95736.25;5016139;28;20062;-68
2023/08/05 06:10:55;;;;;;;2.15;2.05;;;;;;;14.29;100.00;95739.09;5016238;28;20080;-68
2023/08/05 06:13:21;;;;;;;2.58;2.38;;;;;;;14.27;100.00;95730.47;5014717;28;20022;-68
2023/08/05 06:15:46;;;;;;;2.50;2.30;;;;;;;14.32;100.00;95736.09;5016282;28;20026;-68
2023/08/05 06:18:12;;;;;;;2.28;2.15;;;;;;;14.46;100.00;95741.72;5016362;28;20398;-68
2023/08/05 06:20:38;;;;;;;2.20;2.10;;;;;;;14.60;100.00;95751.66;5016565;28;20038;-68
2023/08/05 06:23:03;;;;;;;2.20;2.10;;;;;;;14.72;100.00;95759.34;5015743;28;20032;-69
2023/08/05 06:25:29;;;;;;;2.13;2.03;;;;;;;14.80;100.00;95769.06;5015813;28;20036;-69
2023/08/05 06:27:54;;;;;;;1.98;1.88;;;;;;;14.95;100.00;95795.75;5025903;28;20092;-69
2023/08/05 06:30:20;;;;;;;2.35;2.10;;;;;;;15.08;100.00;95806.66;5015515;28;20029;-68
2023/08/05 06:32:45;;;;;;;2.03;1.92;;;;;;;15.20;100.00;95804.50;5020243;28;20021;-69
2023/08/05 06:35:11;;;;;;;2.13;2.00;;;;;;;15.31;100.00;95782.09;5023054;28;20033;-69
2023/08/05 06:37:36;;;;;;;2.22;2.10;;;;;;;15.28;100.00;95750.63;5014193;28;20467;-69
2023/08/05 06:40:01;;;;;;;2.35;2.20;;;;;;;15.34;100.00;95715.44;5015954;28;20104;-68
2023/08/05 06:42:27;;;;;;;2.30;2.20;;;;;;;15.45;100.00;95685.91;5015881;28;20519;-69
2023/08/05 06:44:53;;;;;;;4.10;1.98;;;;;;;15.53;100.00;95666.47;5015516;28;20105;-69
2023/08/05 06:47:19;;;;;;;2.03;1.88;;;;;;;15.61;100.00;95621.31;5014417;28;20574;-69
2023/08/05 06:49:44;;;;;;;2.35;2.10;;;;;;;15.70;100.00;95513.28;5016381;28;20018;-69
2023/08/05 06:52:10;;;;;;;2.10;2.00;;;;;;;15.87;100.00;95510.50;5015472;28;20032;-68
2023/08/05 06:54:35;;;;;;;2.50;1.70;;;;;;;15.93;100.00;95514.31;5014987;28;20090;-68
2023/08/05 06:57:01;;;;;;;1.92;1.83;;;;;;;16.03;100.00;95520.16;5015013;28;20026;-68
2023/08/05 06:59:27;;;;;;;1.80;1.70;;;;;;;16.16;100.00;95524.84;5015333;28;20064;-68
2023/08/05 07:01:53;;;;;;;2.42;1.80;;;;;;;16.35;100.00;95512.88;5000356;28;20051;-68
2023/08/05 07:04:19;;;;;;;1.98;1.77;;;;;;;16.58;100.00;95552.66;5006124;28;20038;-68
2023/08/05 07:06:44;;;;;;;2.63;1.90;;;;;;;16.85;100.00;95658.53;5014503;28;20026;-68
2023/08/05 07:09:10;;;;;;;4.70;1.80;;;;;;;17.18;100.00;95680.31;5005327;28;20022;-68
2023/08/05 07:11:36;;;;;;;2.47;1.85;;;;;;;17.35;100.00;95733.31;5012949;28;20025;-70
2023/08/05 07:14:01;;;;;;;1.77;1.67;;;;;;;17.56;100.00;95759.22;5014976;28;20639;-68
2023/08/05 07:16:27;;;;;;;1.73;1.63;;;;;;;17.69;100.00;95776.38;5013654;28;20498;-68
2023/08/05 07:18:52;;;;;;;1.67;1.58;;;;;;;18.03;100.00;95773.16;5015054;28;20022;-68
2023/08/05 07:21:18;;;;;;;1.70;1.58;;;;;;;18.48;100.00;95788.19;5002922;28;20442;-69
2023/08/05 07:23:44;;;;;;;1.77;1.67;;;;;;;18.84;100.00;95802.47;5015205;28;20025;-66
2023/08/05 07:26:09;;;;;;;1.55;1.55;;;;;;;19.00;100.00;95812.88;5016139;28;20398;-66
2023/08/05 07:28:34;;;;;;;1.70;1.60;;;;;;;19.22;100.00;95804.84;5014876;28;20064;-66
2023/08/05 07:31:04;;;;;;;1.55;1.52;;;;;;;19.26;100.00;95773.28;5013888;28;20471;-66
2023/08/05 07:33:30;;;;;;;4.03;1.60;;;;;;;19.39;100.00;95761.88;5011802;28;20536;-66
2023/08/05 07:35:56;;;;;;;1.40;1.40;;;;;;;19.45;100.00;95750.41;5013859;28;20033;-66
2023/08/05 07:38:25;;;;;;;1.75;1.65;;;;;;;19.72;100.00;95730.00;5009852;28;20048;-66
2023/08/05 07:40:54;;;;;;;1.50;1.40;;;;;;;20.00;100.00;95707.72;5013047;28;20046;-65
2023/08/05 07:43:23;;;;;;;1.38;1.38;;;;;;;19.62;100.00;95721.53;5014263;28;20049;-66
2023/08/05 07:45:49;;;;;;;1.42;1.42;;;;;;;19.23;100.00;95722.97;5044303;28;20037;-66
2023/08/05 07:48:15;;;;;;;1.70;1.60;;;;;;;18.61;100.00;95715.50;5014447;28;20030;-66
2023/08/05 07:50:40;;;;;;;1.40;1.30;;;;;;;18.64;100.00;95703.63;5015234;28;20109;-66
2023/08/05 07:53:05;;;;;;;1.30;1.30;;;;;;;19.14;100.00;95692.94;5014419;28;20028;-66
2023/08/05 07:55:32;;;;;;;1.80;1.70;;;;;;;19.87;100.00;95678.28;5014349;28;20025;-66
2023/08/05 07:57:58;;;;;;;2.13;1.88;;;;;;;20.14;100.00;95737.16;5013398;28;20138;-66
2023/08/05 08:00:26;;;;;;;1.85;1.52;;;;;;;20.54;100.00;95731.06;5013893;28;20014;-66
2023/08/05 08:02:52;;;;;;;3.85;1.60;;;;;;;20.62;100.00;95717.53;5013009;28;20089;-66
2023/08/05 08:05:17;;;;;;;1.33;1.30;;;;;;;21.17;100.00;95709.31;5014392;28;20433;-66
2023/08/05 08:07:46;;;;;;;1.55;1.45;;;;;;;21.42;100.00;95689.88;5014103;28;20566;-66
2023/08/05 08:10:12;;;;;;;1.30;1.30;;;;;;;21.39;100.00;95673.41;5013963;28;20021;-66
2023/08/05 08:12:38;;;;;;;2.45;1.50;;;;;;;21.61;100.00;95672.09;5014213;28;20722;-67
2023/08/05 08:15:04;;;;;;;1.42;1.33;;;;;;;21.95;100.00;95625.59;5014083;28;20036;-66
2023/08/05 08:17:30;;;;;;;1.67;1.02;;;;;;;21.94;100.00;95610.56;4996759;28;20022;-66
2023/08/05 08:19:55;;;;;;;1.13;1.13;;;;;;;21.79;100.00;95586.75;5014091;28;20029;-66
2023/08/05 08:22:20;;;;;;;1.30;1.27;;;;;;;21.98;100.00;95568.88;5013872;28;20037;-66
2023/08/05 08:24:46;;;;;;;1.13;1.13;;;;;;;22.08;100.00;95553.13;5014044;28;20482;-66
2023/08/05 08:27:11;;;;;;;1.40;1.40;;;;;;;22.24;100.00;95519.59;5013547;28;20050;-66
2023/08/05 08:29:37;;;;;;;2.38;1.08;;;;;;;22.10;100.00;95507.34;5013790;28;20119;-66
2023/08/05 08:32:02;;;;;;;1.13;1.10;;;;;;;22.23;100.00;95503.72;5013897;28;20566;-66
2023/08/05 08:34:28;;;;;;;1.10;1.10;;;;;;;22.55;100.00;95476.84;5014640;28;20053;-66
2023/08/05 08:36:53;;;;;;;1.52;1.42;;;;;;;22.44;100.00;95471.13;5014015;28;20072;-66
2023/08/05 08:39:19;;;;;;;1.48;1.30;;;;;;;22.50;100.00;95458.75;5013857;28;20026;-66
2023/08/05 08:41:48;;;;;;;1.65;1.20;;;;;;;22.61;100.00;95441.88;5014506;28;20033;-66
2023/08/05 08:44:16;;;;;;;1.15;1.13;;;;;;;22.56;100.00;95431.00;5013717;28;20434;-66
2023/08/05 08:46:43;;;;;;;1.48;1.38;;;;;;;22.66;100.00;95425.13;5001732;28;20602;-65
2023/08/05 08:49:11;;;;;;;1.27;1.20;;;;;;;22.59;100.00;95414.47;5012357;28;20113;-65
2023/08/05 08:51:37;;;;;;;1.40;1.30;;;;;;;22.82;100.00;95406.78;5016873;28;20030;-65
2023/08/05 08:54:03;;;;;;;1.30;1.20;;;;;;;23.09;100.00;95399.16;5019840;28;20032;-65
2023/08/05 08:56:30;;;;;;;1.20;1.10;;;;;;;23.18;100.00;95383.56;5019692;28;20021;-65
2023/08/05 08:58:55;;;;;;;1.40;1.30;;;;;;;23.38;100.00;95377.94;5003521;28;20040;-64
2023/08/05 09:01:21;;;;;;;1.33;1.20;;;;;;;23.37;100.00;95352.13;5026702;28;20017;-65
2023/08/05 09:03:51;;;;;;;1.75;1.35;;;;;;;23.39;100.00;95338.44;4999925;28;20483;-64
2023/08/05 09:06:20;;;;;;;1.38;1.27;;;;;;;23.29;100.00;95330.97;5017213;28;20045;-64
2023/08/05 09:08:47;;;;;;;1.30;1.30;;;;;;;23.30;100.00;95335.28;5016653;28;20084;-64
2023/08/05 09:11:14;;;;;;;1.75;1.30;;;;;;;23.40;100.00;95332.03;5016729;28;20054;-65
2023/08/05 09:13:40;;;;;;;0.98;0.98;;;;;;;23.52;100.00;95323.97;5017476;28;20060;-66
2023/08/05 09:16:05;;;;;;;2.00;1.60;;;;;;;23.70;100.00;95317.69;5017167;28;20053;-66
2023/08/05 09:18:31;;;;;;;1.17;1.17;;;;;;;23.84;100.00;95304.81;5017467;28;20101;-65
2023/08/05 09:20:59;;;;;;;2.92;1.35;;;;;;;23.84;100.00;95299.44;5017314;28;20044;-65
2023/08/05 09:23:25;;;;;;;1.30;1.20;;;;;;;23.75;100.00;95280.16;5017424;28;20092;-65
2023/08/05 09:25:50;;;;;;;1.65;1.35;;;;;;;23.84;100.00;95278.75;5017851;28;20030;-65
2023/08/05 09:28:30;;;;;;;2.75;1.30;;;;;;;24.17;100.00;95271.94;5019908;28;20046;-65
2023/08/05 09:31:12;;;;;;;1.10;1.10;;;;;;;24.00;100.00;95274.53;5016667;28;20112;-65
2023/08/05 09:33:39;;;;;;;0.93;0.93;;;;;;;23.97;100.00;95284.94;5016599;28;20428;-65
2023/08/05 09:36:12;;;;;;;1.15;1.15;;;;;;;24.22;100.00;95278.47;5016830;28;20021;-65
2023/08/05 09:38:39;;;;;;;1.05;1.02;;;;;;;24.61;100.00;95257.94;5012686;28;20018;-65
2023/08/05 09:41:06;;;;;;;1.40;1.30;;;;;;;24.67;100.00;95252.69;5016934;28;20028;-65
2023/08/05 09:43:34;;;;;;;1.63;1.52;;;;;;;24.43;100.00;95236.66;5016589;28;20792;-65
2023/08/05 09:46:04;;;;;;;1.58;1.48;;;;;;;24.57;100.00;95237.97;5041316;28;20026;-65
2023/08/05 09:48:39;;;;;;;1.27;1.17;;;;;;;24.81;100.00;95235.19;5014013;28;20018;-65
2023/08/05 09:51:06;;;;;;;1.50;1.38;;;;;;;24.77;100.00;95219.78;5018390;28;20559;-65
2023/08/05 09:53:35;;;;;;;1.40;1.30;;;;;;;24.60;100.00;95210.59;5016704;28;20022;-65
2023/08/05 09:56:02;;;;;;;1.10;1.10;;;;;;;24.97;100.00;95224.69;5015387;28;20101;-65
2023/08/05 09:58:27;;;;;;;1.45;1.20;;;;;;;24.96;100.00;95221.16;5017022;28;20438;-65
2023/08/05 10:00:55;;;;;;;1.30;1.20;;;;;;;24.90;100.00;95230.22;5048548;28;20079;-65
2023/08/05 10:03:21;;;;;;;1.20;1.10;;;;;;;24.82;100.00;95234.13;5015164;28;21447;-65
2023/08/05 10:05:47;;;;;;;1.35;1.25;;;;;;;24.68;100.00;95244.34;5016239;28;20561;-65
2023/08/05 10:08:16;;;;;;;1.75;1.35;;;;;;;24.77;100.00;95252.09;4998710;28;20022;-65
2023/08/05 10:10:42;;;;;;;1.10;1.10;;;;;;;24.69;100.00;95256.75;5007542;28;20076;-65
2023/08/05 10:13:20;;;;;;;1.33;1.30;;;;;;;24.61;100.00;95271.41;5016149;28;20028;-66
2023/08/05 10:15:52;;;;;;;1.27;1.17;;;;;;;24.55;100.00;95280.44;5016495;28;20072;-65
2023/08/05 10:18:18;;;;;;;1.55;1.45;;;;;;;24.64;100.00;95285.44;5015886;28;20026;-65
2023/08/05 10:20:50;;;;;;;0.98;0.98;;;;;;;24.50;100.00;95282.22;5002232;28;20033;-65
2023/08/05 10:23:16;;;;;;;1.20;1.17;;;;;;;24.95;100.00;95261.81;5004485;28;20092;-65
2023/08/05 10:25:58;;;;;;;1.35;1.25;;;;;;;25.13;100.00;95266.13;5015940;28;20014;-65
2023/08/05 10:28:24;;;;;;;1.20;1.20;;;;;;;24.93;100.00;95283.56;5015558;28;20052;-65
2023/08/05 10:30:50;;;;;;;1.30;1.20;;;;;;;24.36;100.00;95298.66;5015754;28;20017;-65
2023/08/05 10:33:16;;;;;;;1.15;1.15;;;;;;;24.84;100.00;95285.84;5016850;28;20026;-65
2023/08/05 10:35:43;;;;;;;2.72;1.33;;;;;;;24.61;100.00;95282.16;5002109;28;20083;-65
2023/08/05 10:38:22;;;;;;;1.70;1.50;;;;;;;24.75;100.00;95288.09;5016046;28;20068;-65
2023/08/05 10:41:03;;;;;;;1.40;1.30;;;;;;;25.05;100.00;95286.19;5015527;28;20018;-65
2023/08/05 10:43:31;;;;;;;1.48;1.38;;;;;;;25.73;100.00;95274.59;5015576;28;20026;-65
2023/08/05 10:46:00;;;;;;;1.38;1.30;;;;;;;25.11;100.00;95279.03;5016008;28;20056;-65
2023/08/05 10:48:30;;;;;;;1.50;1.40;;;;;;;25.20;100.00;95266.78;5015693;28;20034;-65
2023/08/05 10:50:57;;;;;;;1.30;1.30;;;;;;;25.52;100.00;95262.69;5017145;28;20017;-65
2023/08/05 10:53:23;;;;;;;1.25;1.25;;;;;;;25.48;100.00;95256.16;5015164;28;20033;-65
2023/08/05 10:55:53;;;;;;;1.90;1.15;;;;;;;25.58;100.00;95269.81;5015491;28;20026;-65
2023/08/05 10:58:27;;;;;;;1.20;1.20;;;;;;;25.31;100.00;95297.38;5015362;28;20029;-65
2023/08/05 11:01:00;;;;;;;1.50;1.40;;;;;;;25.50;100.00;95244.09;5015833;28;20075;-65
2023/08/05 11:03:31;;;;;;;2.10;1.38;;;;;;;25.97;100.00;95252.78;5015412;28;20265;-65
2023/08/05 11:06:02;;;;;;;1.42;1.17;;;;;;;26.38;100.00;95336.13;5015525;28;20025;-65
2023/08/05 11:08:27;;;;;;;2.13;1.30;;;;;;;26.46;100.00;95365.38;5014909;28;20053;-65
2023/08/05 11:10:53;;;;;;;4.35;1.08;;;;;;;26.23;100.00;95350.25;5015476;28;20029;-65
2023/08/05 11:13:18;;;;;;;2.53;1.13;;;;;;;26.19;100.00;95382.28;5015020;28;20030;-65
2023/08/05 11:16:12;;;;;;;1.30;1.20;;;;;;;25.86;100.00;95454.06;5014678;28;20033;-65
2023/08/05 11:18:40;;;;;;;4.75;1.52;;;;;;;26.44;100.00;95478.97;5015026;28;20032;-65
2023/08/05 11:21:08;;;;;;;1.13;1.08;;;;;;;25.96;100.00;95451.50;5014709;28;20026;-65